createdAt,value
2018-05-23T00:00:19.248Z,1010.97
2018-05-23T00:01:28.167Z,1011.01
2018-05-23T00:02:36.815Z,1011.01
2018-05-23T00:03:45.462Z,1011.03
2018-05-23T00:04:54.106Z,1011.02
2018-05-23T00:06:02.758Z,1011
2018-05-23T00:07:11.405Z,1010.97
2018-05-23T00:08:20.050Z,1011
2018-05-23T00:09:28.693Z,1010.97
2018-05-23T00:10:37.342Z,1011.06
2018-05-23T00:11:45.994Z,1011.03
2018-05-23T00:12:54.899Z,1011.06
2018-05-23T00:14:03.546Z,1011.06
2018-05-23T00:15:12.191Z,1011.1
2018-05-23T00:16:21.108Z,1011.09
2018-05-23T00:17:29.753Z,1011.07
2018-05-23T00:18:38.400Z,1011.05
2018-05-23T00:19:47.311Z,1011.07
2018-05-23T00:20:55.961Z,1011.05
2018-05-23T00:22:04.606Z,1011.04
2018-05-23T00:23:13.255Z,1011.02
2018-05-23T00:24:22.162Z,1011.03
2018-05-23T00:25:30.812Z,1010.98
2018-05-23T00:26:39.461Z,1011.01
2018-05-23T00:27:48.192Z,1011.03
2018-05-23T00:28:57.108Z,1011.03
2018-05-23T00:30:05.753Z,1011.07
2018-05-23T00:31:14.667Z,1010.98
2018-05-23T00:32:23.316Z,1010.96
2018-05-23T00:33:32.234Z,1010.98
2018-05-23T00:34:40.879Z,1010.98
2018-05-23T00:35:49.522Z,1010.99
2018-05-23T00:36:58.174Z,1010.94
2018-05-23T00:38:06.825Z,1010.93
2018-05-23T00:39:15.468Z,1010.99
2018-05-23T00:40:24.119Z,1011.01
2018-05-23T00:41:33.027Z,1010.99
2018-05-23T00:42:41.677Z,1011
2018-05-23T00:43:50.323Z,1011.04
2018-05-23T00:44:59.238Z,1011.02
2018-05-23T00:46:07.885Z,1011.03
2018-05-23T00:47:16.794Z,1010.98
2018-05-23T00:48:25.445Z,1011
2018-05-23T00:49:34.092Z,1010.99
2018-05-23T00:50:42.739Z,1010.99
2018-05-23T00:51:51.381Z,1010.99
2018-05-23T00:53:00.038Z,1011.04
2018-05-23T00:54:08.680Z,1011.01
2018-05-23T00:55:17.332Z,1011
2018-05-23T00:56:25.977Z,1011.03
2018-05-23T00:57:34.633Z,1011.02
2018-05-23T00:58:43.543Z,1011.03
2018-05-23T00:59:52.460Z,1011.04
2018-05-23T01:01:01.098Z,1011.04
2018-05-23T01:02:09.746Z,1011.05
2018-05-23T01:03:18.399Z,1011.02
2018-05-23T01:04:27.319Z,1011.03
2018-05-23T01:05:35.971Z,1011.04
2018-05-23T01:06:44.615Z,1011.01
2018-05-23T01:07:53.266Z,1011.02
2018-05-23T01:09:01.909Z,1011.03
2018-05-23T01:10:10.564Z,1010.99
2018-05-23T01:11:19.206Z,1011.03
2018-05-23T01:12:28.120Z,1011.04
2018-05-23T01:13:37.032Z,1010.97
2018-05-23T01:14:45.690Z,1011.02
2018-05-23T01:15:54.331Z,1011.05
2018-05-23T01:17:02.984Z,1011.02
2018-05-23T01:18:11.629Z,1011.03
2018-05-23T01:19:20.284Z,1011.06
2018-05-23T01:20:28.923Z,1011.04
2018-05-23T01:21:37.567Z,1011.02
2018-05-23T01:22:46.478Z,1011.05
2018-05-23T01:23:55.136Z,1011.04
2018-05-23T01:25:03.778Z,1011.07
2018-05-23T01:26:12.419Z,1011.1
2018-05-23T01:27:21.070Z,1011.13
2018-05-23T01:28:29.706Z,1011.13
2018-05-23T01:29:38.361Z,1011.15
2018-05-23T01:30:47.007Z,1011.17
2018-05-23T01:31:55.657Z,1011.13
2018-05-23T01:33:04.297Z,1011.14
2018-05-23T01:34:12.954Z,1011.15
2018-05-23T01:35:21.598Z,1011.17
2018-05-23T01:36:30.515Z,1011.18
2018-05-23T01:37:39.153Z,1011.17
2018-05-23T01:38:47.802Z,1011.17
2018-05-23T01:39:56.728Z,1011.14
2018-05-23T01:41:05.646Z,1011.21
2018-05-23T01:42:14.293Z,1011.17
2018-05-23T01:43:22.933Z,1011.17
2018-05-23T01:44:31.595Z,1011.16
2018-05-23T01:45:40.230Z,1011.15
2018-05-23T01:46:48.888Z,1011.17
2018-05-23T01:47:57.531Z,1011.2
2018-05-23T01:49:06.180Z,1011.19
2018-05-23T01:50:14.819Z,1011.17
2018-05-23T01:51:23.474Z,1011.17
2018-05-23T01:52:32.114Z,1011.16
2018-05-23T01:53:40.760Z,1011.18
2018-05-23T01:54:49.413Z,1011.15
2018-05-23T01:55:58.052Z,1011.15
2018-05-23T01:57:06.702Z,1011.14
2018-05-23T01:58:15.357Z,1011.13
2018-05-23T01:59:24.008Z,1011.12
2018-05-23T02:00:32.658Z,1011.15
2018-05-23T02:01:41.296Z,1011.16
2018-05-23T02:02:49.949Z,1011.16
2018-05-23T02:03:58.590Z,1011.17
2018-05-23T02:05:07.512Z,1011.18
2018-05-23T02:06:16.155Z,1011.18
2018-05-23T02:07:24.806Z,1011.21
2018-05-23T02:08:33.446Z,1011.23
2018-05-23T02:09:42.102Z,1011.23
2018-05-23T02:10:50.740Z,1011.19
2018-05-23T02:11:59.656Z,1011.19
2018-05-23T02:13:08.302Z,1011.23
2018-05-23T02:14:17.217Z,1011.2
2018-05-23T02:15:25.860Z,1011.17
2018-05-23T02:16:34.502Z,1011.2
2018-05-23T02:17:43.415Z,1011.2
2018-05-23T02:18:52.059Z,1011.18
2018-05-23T02:20:00.714Z,1011.18
2018-05-23T02:21:09.357Z,1011.19
2018-05-23T02:22:18.011Z,1011.19
2018-05-23T02:23:26.645Z,1011.19
2018-05-23T02:24:35.843Z,1011.21
2018-05-23T02:25:44.485Z,1011.22
2018-05-23T02:26:53.139Z,1011.24
2018-05-23T02:28:02.036Z,1011.23
2018-05-23T02:29:10.950Z,1011.26
2018-05-23T02:30:19.856Z,1011.28
2018-05-23T02:31:28.510Z,1011.28
2018-05-23T02:32:37.414Z,1011.31
2018-05-23T02:33:46.065Z,1011.27
2018-05-23T02:34:54.999Z,1011.25
2018-05-23T02:36:04.175Z,1011.27
2018-05-23T02:37:12.827Z,1011.26
2018-05-23T02:38:21.464Z,1011.29
2018-05-23T02:39:30.118Z,1011.25
2018-05-23T02:40:38.766Z,1011.25
2018-05-23T02:41:47.424Z,1011.27
2018-05-23T02:42:56.065Z,1011.26
2018-05-23T02:44:04.719Z,1011.25
2018-05-23T02:45:13.367Z,1011.28
2018-05-23T02:46:22.299Z,1011.31
2018-05-23T02:47:30.936Z,1011.3
2018-05-23T02:48:39.587Z,1011.31
2018-05-23T02:49:48.234Z,1011.32
2018-05-23T02:50:57.170Z,1011.3
2018-05-23T02:52:05.815Z,1011.34
2018-05-23T02:53:14.726Z,1011.39
2018-05-23T02:54:23.375Z,1011.43
2018-05-23T02:55:32.027Z,1011.42
2018-05-23T02:56:40.679Z,1011.39
2018-05-23T02:57:49.325Z,1011.43
2018-05-23T02:58:57.973Z,1011.4
2018-05-23T03:00:06.874Z,1011.42
2018-05-23T03:01:15.530Z,1011.49
2018-05-23T03:02:24.469Z,1011.46
2018-05-23T03:03:33.782Z,1011.49
2018-05-23T03:04:42.584Z,1011.46
2018-05-23T03:05:51.583Z,1011.46
2018-05-23T03:07:00.479Z,1011.47
2018-05-23T03:08:09.128Z,1011.44
2018-05-23T03:09:17.762Z,1011.46
2018-05-23T03:10:26.412Z,1011.49
2018-05-23T03:11:35.325Z,1011.5
2018-05-23T03:12:43.970Z,1011.49
2018-05-23T03:13:52.886Z,1011.52
2018-05-23T03:15:01.528Z,1011.51
2018-05-23T03:16:10.173Z,1011.5
2018-05-23T03:17:18.819Z,1011.54
2018-05-23T03:18:27.475Z,1011.55
2018-05-23T03:19:36.118Z,1011.58
2018-05-23T03:20:44.764Z,1011.53
2018-05-23T03:21:53.410Z,1011.57
2018-05-23T03:23:02.068Z,1011.59
2018-05-23T03:24:10.700Z,1011.58
2018-05-23T03:25:19.353Z,1011.6
2018-05-23T03:26:27.999Z,1011.63
2018-05-23T03:27:36.920Z,1011.62
2018-05-23T03:28:45.564Z,1011.66
2018-05-23T03:29:54.210Z,1011.65
2018-05-23T03:32:11.513Z,1011.68
2018-05-23T03:33:20.441Z,1011.67
2018-05-23T03:34:29.086Z,1011.71
2018-05-23T03:35:37.734Z,1011.71
2018-05-23T03:36:46.377Z,1011.67
2018-05-23T03:37:55.027Z,1011.69
2018-05-23T03:39:03.671Z,1011.68
2018-05-23T03:40:12.318Z,1011.71
2018-05-23T03:41:20.959Z,1011.69
2018-05-23T03:42:29.611Z,1011.69
2018-05-23T03:43:38.254Z,1011.73
2018-05-23T03:44:47.164Z,1011.76
2018-05-23T03:45:56.096Z,1011.78
2018-05-23T03:47:04.747Z,1011.79
2018-05-23T03:48:13.732Z,1011.8
2018-05-23T03:49:22.381Z,1011.79
2018-05-23T03:50:31.031Z,1011.83
2018-05-23T03:51:39.935Z,1011.85
2018-05-23T03:52:48.583Z,1011.86
2018-05-23T03:53:57.228Z,1011.86
2018-05-23T03:55:05.882Z,1011.86
2018-05-23T03:56:14.845Z,1011.88
2018-05-23T03:57:23.758Z,1011.85
2018-05-23T03:58:32.400Z,1011.89
2018-05-23T03:59:41.057Z,1011.87
2018-05-23T04:00:49.703Z,1011.93
2018-05-23T04:01:58.345Z,1011.9
2018-05-23T04:03:06.991Z,1011.89
2018-05-23T04:04:15.647Z,1011.88
2018-05-23T04:05:24.324Z,1011.9
2018-05-23T04:06:32.934Z,1011.87
2018-05-23T04:07:41.845Z,1011.89
2018-05-23T04:08:50.492Z,1011.88
2018-05-23T04:09:59.143Z,1011.89
2018-05-23T04:11:07.788Z,1011.91
2018-05-23T04:12:16.436Z,1011.9
2018-05-23T04:13:25.074Z,1011.92
2018-05-23T04:14:33.729Z,1011.93
2018-05-23T04:15:42.371Z,1011.94
2018-05-23T04:16:51.023Z,1011.93
2018-05-23T04:17:59.929Z,1012.01
2018-05-23T04:19:08.844Z,1012.03
2018-05-23T04:20:17.491Z,1012.06
2018-05-23T04:21:26.405Z,1012.14
2018-05-23T04:22:35.043Z,1012.08
2018-05-23T04:23:43.693Z,1012.1
2018-05-23T04:24:52.418Z,1012.11
2018-05-23T04:26:01.474Z,1012.15
2018-05-23T04:27:10.122Z,1012.13
2018-05-23T04:28:19.030Z,1012.15
2018-05-23T04:29:27.684Z,1012.17
2018-05-23T04:30:36.331Z,1012.14
2018-05-23T04:31:45.250Z,1012.18
2018-05-23T04:32:54.153Z,1012.18
2018-05-23T04:34:02.803Z,1012.18
2018-05-23T04:35:11.447Z,1012.19
2018-05-23T04:36:20.098Z,1012.22
2018-05-23T04:37:28.734Z,1012.23
2018-05-23T04:38:37.384Z,1012.23
2018-05-23T04:39:46.028Z,1012.21
2018-05-23T04:40:54.685Z,1012.24
2018-05-23T04:42:03.330Z,1012.24
2018-05-23T04:43:11.972Z,1012.26
2018-05-23T04:44:20.620Z,1012.3
2018-05-23T04:45:29.260Z,1012.31
2018-05-23T04:46:37.915Z,1012.3
2018-05-23T04:47:46.558Z,1012.3
2018-05-23T04:48:55.209Z,1012.34
2018-05-23T04:50:03.845Z,1012.35
2018-05-23T04:51:12.498Z,1012.35
2018-05-23T04:52:21.148Z,1012.34
2018-05-23T04:53:29.795Z,1012.34
2018-05-23T04:54:38.435Z,1012.38
2018-05-23T04:55:47.089Z,1012.39
2018-05-23T04:56:55.738Z,1012.39
2018-05-23T04:58:04.385Z,1012.39
2018-05-23T04:59:13.033Z,1012.35
2018-05-23T05:00:21.685Z,1012.38
2018-05-23T05:01:30.330Z,1012.41
2018-05-23T05:02:38.973Z,1012.45
2018-05-23T05:03:47.622Z,1012.45
2018-05-23T05:04:56.264Z,1012.5
2018-05-23T05:06:04.911Z,1012.52
2018-05-23T05:07:13.557Z,1012.54
2018-05-23T05:08:22.473Z,1012.57
2018-05-23T05:09:31.112Z,1012.53
2018-05-23T05:10:39.760Z,1012.57
2018-05-23T05:11:48.410Z,1012.57
2018-05-23T05:12:57.326Z,1012.58
2018-05-23T05:14:05.971Z,1012.56
2018-05-23T05:15:14.620Z,1012.59
2018-05-23T05:16:23.527Z,1012.62
2018-05-23T05:17:32.181Z,1012.65
2018-05-23T05:18:40.826Z,1012.68
2018-05-23T05:19:49.474Z,1012.67
2018-05-23T05:20:58.118Z,1012.69
2018-05-23T05:22:06.760Z,1012.71
2018-05-23T05:23:15.679Z,1012.76
2018-05-23T05:24:24.325Z,1012.79
2018-05-23T05:25:32.971Z,1012.82
2018-05-23T05:26:41.613Z,1012.81
2018-05-23T05:27:50.539Z,1012.82
2018-05-23T05:28:59.180Z,1012.84
2018-05-23T05:30:08.092Z,1012.87
2018-05-23T05:31:16.733Z,1012.87
2018-05-23T05:32:25.385Z,1012.87
2018-05-23T05:33:34.030Z,1012.93
2018-05-23T05:34:42.945Z,1012.9
2018-05-23T05:35:51.589Z,1012.9
2018-05-23T05:37:00.241Z,1012.93
2018-05-23T05:38:08.888Z,1012.9
2018-05-23T05:39:17.537Z,1012.91
2018-05-23T05:40:26.185Z,1012.93
2018-05-23T05:41:34.829Z,1012.93
2018-05-23T05:42:43.482Z,1012.91
2018-05-23T05:43:52.168Z,1012.96
2018-05-23T05:45:01.237Z,1012.94
2018-05-23T05:46:09.880Z,1012.96
2018-05-23T05:47:18.795Z,1012.99
2018-05-23T05:48:27.448Z,1012.98
2018-05-23T05:49:36.360Z,1013
2018-05-23T05:50:45.274Z,1012.99
2018-05-23T05:51:53.920Z,1013.04
2018-05-23T05:53:02.572Z,1013.06
2018-05-23T05:54:11.217Z,1013.09
2018-05-23T05:55:19.867Z,1013.1
2018-05-23T05:56:28.514Z,1013.08
2018-05-23T05:57:37.166Z,1013.1
2018-05-23T05:58:45.815Z,1013.12
2018-05-23T05:59:54.493Z,1013.18
2018-05-23T06:01:03.113Z,1013.17
2018-05-23T06:02:12.030Z,1013.19
2018-05-23T06:03:20.945Z,1013.2
2018-05-23T06:04:29.588Z,1013.23
2018-05-23T06:05:38.235Z,1013.26
2018-05-23T06:06:46.881Z,1013.23
2018-05-23T06:07:55.534Z,1013.28
2018-05-23T06:09:04.185Z,1013.3
2018-05-23T06:10:12.835Z,1013.32
2018-05-23T06:11:21.485Z,1013.38
2018-05-23T06:12:30.401Z,1013.37
2018-05-23T06:13:39.048Z,1013.43
2018-05-23T06:14:47.695Z,1013.45
2018-05-23T06:15:56.607Z,1013.46
2018-05-23T06:17:05.251Z,1013.48
2018-05-23T06:18:13.904Z,1013.51
2018-05-23T06:19:22.816Z,1013.51
2018-05-23T06:20:31.465Z,1013.49
2018-05-23T06:21:40.113Z,1013.54
2018-05-23T06:22:49.031Z,1013.51
2018-05-23T06:23:57.678Z,1013.52
2018-05-23T06:25:06.329Z,1013.53
2018-05-23T06:26:14.970Z,1013.54
2018-05-23T06:27:23.625Z,1013.55
2018-05-23T06:28:32.271Z,1013.54
2018-05-23T06:29:40.923Z,1013.54
2018-05-23T06:30:49.572Z,1013.54
2018-05-23T06:31:58.218Z,1013.54
2018-05-23T06:33:06.866Z,1013.59
2018-05-23T06:34:15.522Z,1013.59
2018-05-23T06:35:24.176Z,1013.6
2018-05-23T06:36:32.812Z,1013.62
2018-05-23T06:37:41.515Z,1013.65
2018-05-23T06:38:50.114Z,1013.66
2018-05-23T06:39:58.767Z,1013.67
2018-05-23T06:41:07.412Z,1013.7
2018-05-23T06:42:16.061Z,1013.69
2018-05-23T06:43:24.983Z,1013.73
2018-05-23T06:44:34.019Z,1013.7
2018-05-23T06:45:42.664Z,1013.7
2018-05-23T06:46:51.314Z,1013.76
2018-05-23T06:47:59.961Z,1013.78
2018-05-23T06:49:08.905Z,1013.78
2018-05-23T06:50:17.551Z,1013.74
2018-05-23T06:51:26.200Z,1013.83
2018-05-23T06:52:34.847Z,1013.8
2018-05-23T06:53:43.498Z,1013.85
2018-05-23T06:54:52.149Z,1013.85
2018-05-23T06:56:01.067Z,1013.84
2018-05-23T06:57:09.717Z,1013.85
2018-05-23T06:58:18.622Z,1013.88
2018-05-23T06:59:27.285Z,1013.89
2018-05-23T07:00:35.934Z,1013.88
2018-05-23T07:01:44.588Z,1013.89
2018-05-23T07:02:53.226Z,1013.91
2018-05-23T07:04:01.897Z,1013.92
2018-05-23T07:05:10.537Z,1013.95
2018-05-23T07:06:19.192Z,1013.97
2018-05-23T07:07:27.829Z,1014.01
2018-05-23T07:08:36.494Z,1013.98
2018-05-23T07:09:45.144Z,1014.01
2018-05-23T07:10:53.796Z,1014.05
2018-05-23T07:12:02.460Z,1014.04
2018-05-23T07:13:11.365Z,1014.08
2018-05-23T07:14:20.281Z,1014.06
2018-05-23T07:15:28.928Z,1014.06
2018-05-23T07:16:37.589Z,1014.12
2018-05-23T07:17:46.559Z,1014.1
2018-05-23T07:18:55.151Z,1014.1
2018-05-23T07:20:04.060Z,1014.11
2018-05-23T07:21:12.720Z,1014.12
2018-05-23T07:22:21.360Z,1014.12
2018-05-23T07:23:30.011Z,1014.15
2018-05-23T07:24:38.660Z,1014.12
2018-05-23T07:25:47.389Z,1014.17
2018-05-23T07:26:55.973Z,1014.17
2018-05-23T07:28:04.613Z,1014.16
2018-05-23T07:29:13.263Z,1014.19
2018-05-23T07:30:21.911Z,1014.17
2018-05-23T07:31:30.571Z,1014.18
2018-05-23T07:32:39.216Z,1014.18
2018-05-23T07:33:47.873Z,1014.17
2018-05-23T07:34:56.514Z,1014.24
2018-05-23T07:36:05.175Z,1014.25
2018-05-23T07:37:13.821Z,1014.26
2018-05-23T07:38:22.501Z,1014.28
2018-05-23T07:39:31.419Z,1014.29
2018-05-23T07:40:40.081Z,1014.3
2018-05-23T07:41:48.729Z,1014.3
2018-05-23T07:42:57.384Z,1014.28
2018-05-23T07:44:06.025Z,1014.32
2018-05-23T07:45:14.684Z,1014.3
2018-05-23T07:46:23.606Z,1014.3
2018-05-23T07:47:32.256Z,1014.25
2018-05-23T07:48:40.902Z,1014.29
2018-05-23T07:49:49.566Z,1014.31
2018-05-23T07:50:58.219Z,1014.34
2018-05-23T07:52:06.868Z,1014.33
2018-05-23T07:53:15.777Z,1014.34
2018-05-23T07:54:24.434Z,1014.36
2018-05-23T07:55:33.085Z,1014.38
2018-05-23T07:56:42.080Z,1014.39
2018-05-23T07:57:50.664Z,1014.39
2018-05-23T07:58:59.320Z,1014.4
2018-05-23T08:00:07.970Z,1014.44
2018-05-23T08:01:16.624Z,1014.47
2018-05-23T08:02:25.269Z,1014.48
2018-05-23T08:03:33.923Z,1014.42
2018-05-23T08:04:42.573Z,1014.44
2018-05-23T08:05:51.233Z,1014.4
2018-05-23T08:06:59.884Z,1014.46
2018-05-23T08:08:08.533Z,1014.4
2018-05-23T08:09:17.183Z,1014.43
2018-05-23T08:10:25.835Z,1014.43
2018-05-23T08:11:34.491Z,1014.46
2018-05-23T08:12:43.409Z,1014.45
2018-05-23T08:13:52.326Z,1014.47
2018-05-23T08:15:00.978Z,1014.43
2018-05-23T08:16:09.636Z,1014.46
2018-05-23T08:17:18.284Z,1014.43
2018-05-23T08:18:26.939Z,1014.43
2018-05-23T08:19:35.587Z,1014.43
2018-05-23T08:20:44.242Z,1014.42
2018-05-23T08:21:52.892Z,1014.44
2018-05-23T08:23:01.612Z,1014.43
2018-05-23T08:24:10.199Z,1014.43
2018-05-23T08:25:18.849Z,1014.45
2018-05-23T08:26:27.507Z,1014.45
2018-05-23T08:27:36.158Z,1014.47
2018-05-23T08:28:44.808Z,1014.46
2018-05-23T08:29:53.536Z,1014.45
2018-05-23T08:31:02.109Z,1014.48
2018-05-23T08:32:10.761Z,1014.49
2018-05-23T08:33:19.418Z,1014.49
2018-05-23T08:34:28.067Z,1014.51
2018-05-23T08:35:36.725Z,1014.52
2018-05-23T08:36:45.376Z,1014.56
2018-05-23T08:37:54.020Z,1014.53
2018-05-23T08:39:02.668Z,1014.55
2018-05-23T08:40:11.323Z,1014.54
2018-05-23T08:41:19.975Z,1014.57
2018-05-23T08:42:28.628Z,1014.55
2018-05-23T08:43:37.284Z,1014.57
2018-05-23T08:44:45.929Z,1014.56
2018-05-23T08:45:54.658Z,1014.57
2018-05-23T08:47:03.695Z,1014.57
2018-05-23T08:48:12.629Z,1014.57
2018-05-23T08:49:21.271Z,1014.61
2018-05-23T08:50:29.927Z,1014.6
2018-05-23T08:51:38.579Z,1014.58
2018-05-23T08:52:47.240Z,1014.6
2018-05-23T08:53:55.884Z,1014.6
2018-05-23T08:55:04.537Z,1014.61
2018-05-23T08:56:13.188Z,1014.59
2018-05-23T08:57:22.118Z,1014.58
2018-05-23T08:58:30.769Z,1014.6
2018-05-23T08:59:39.415Z,1014.64
2018-05-23T09:00:48.069Z,1014.62
2018-05-23T09:01:56.717Z,1014.62
2018-05-23T09:03:05.440Z,1014.66
2018-05-23T09:04:14.350Z,1014.67
2018-05-23T09:05:23.005Z,1014.71
2018-05-23T09:06:31.649Z,1014.71
2018-05-23T09:07:40.309Z,1014.72
2018-05-23T09:08:48.956Z,1014.76
2018-05-23T09:09:57.613Z,1014.73
2018-05-23T09:11:06.257Z,1014.76
2018-05-23T09:12:14.941Z,1014.74
2018-05-23T09:13:23.567Z,1014.78
2018-05-23T09:14:32.220Z,1014.79
2018-05-23T09:15:40.865Z,1014.78
2018-05-23T09:16:49.518Z,1014.83
2018-05-23T09:17:58.176Z,1014.85
2018-05-23T09:19:06.829Z,1014.88
2018-05-23T09:20:15.484Z,1014.86
2018-05-23T09:21:24.128Z,1014.86
2018-05-23T09:22:32.784Z,1014.86
2018-05-23T09:23:41.435Z,1014.89
2018-05-23T09:24:50.097Z,1014.88
2018-05-23T09:25:59.010Z,1014.9
2018-05-23T09:27:07.668Z,1014.91
2018-05-23T09:28:16.573Z,1014.92
2018-05-23T09:29:25.257Z,1014.94
2018-05-23T09:30:33.879Z,1014.98
2018-05-23T09:31:42.534Z,1014.95
2018-05-23T09:32:51.183Z,1015.03
2018-05-23T09:34:00.111Z,1015
2018-05-23T09:35:08.762Z,1014.99
2018-05-23T09:36:17.410Z,1015.04
2018-05-23T09:37:26.059Z,1015
2018-05-23T09:38:34.711Z,1015.04
2018-05-23T09:39:43.373Z,1015.06
2018-05-23T09:40:52.019Z,1015.03
2018-05-23T09:42:00.678Z,1015.03
2018-05-23T09:43:09.321Z,1015.04
2018-05-23T09:44:17.978Z,1015.08
2018-05-23T09:45:26.633Z,1015.07
2018-05-23T09:46:35.284Z,1015.04
2018-05-23T09:47:43.946Z,1015.06
2018-05-23T09:48:52.588Z,1015.07
2018-05-23T09:50:01.246Z,1015.09
2018-05-23T09:51:09.895Z,1015.12
2018-05-23T09:52:18.556Z,1015.1
2018-05-23T09:53:27.480Z,1015.08
2018-05-23T09:54:36.129Z,1015.09
2018-05-23T09:55:44.778Z,1015.15
2018-05-23T09:56:53.431Z,1015.11
2018-05-23T09:58:02.355Z,1015.11
2018-05-23T09:59:11.002Z,1015.12
2018-05-23T10:00:19.662Z,1015.14
2018-05-23T10:01:28.328Z,1015.16
2018-05-23T10:02:36.974Z,1015.15
2018-05-23T10:03:45.962Z,1015.2
2018-05-23T10:04:54.811Z,1015.2
2018-05-23T10:06:03.456Z,1015.21
2018-05-23T10:07:12.120Z,1015.21
2018-05-23T10:08:20.771Z,1015.27
2018-05-23T10:09:29.427Z,1015.29
2018-05-23T10:10:38.337Z,1015.27
2018-05-23T10:11:47.261Z,1015.27
2018-05-23T10:12:57.447Z,1015.3
2018-05-23T10:14:06.109Z,1015.3
2018-05-23T10:15:15.031Z,1015.32
2018-05-23T10:16:23.675Z,1015.3
2018-05-23T10:17:32.337Z,1015.34
2018-05-23T10:18:40.979Z,1015.32
2018-05-23T10:19:49.642Z,1015.35
2018-05-23T10:20:58.280Z,1015.33
2018-05-23T10:22:06.938Z,1015.34
2018-05-23T10:23:15.588Z,1015.33
2018-05-23T10:24:24.340Z,1015.35
2018-05-23T10:25:33.217Z,1015.39
2018-05-23T10:26:42.292Z,1015.39
2018-05-23T10:27:51.500Z,1015.37
2018-05-23T10:29:00.236Z,1015.41
2018-05-23T10:30:09.361Z,1015.47
2018-05-23T10:31:18.011Z,1015.43
2018-05-23T10:32:26.662Z,1015.5
2018-05-23T10:33:35.316Z,1015.47
2018-05-23T10:34:44.035Z,1015.51
2018-05-23T10:35:53.403Z,1015.54
2018-05-23T10:37:02.337Z,1015.53
2018-05-23T10:38:10.981Z,1015.52
2018-05-23T10:39:19.644Z,1015.53
2018-05-23T10:40:28.292Z,1015.6
2018-05-23T10:41:36.953Z,1015.57
2018-05-23T10:42:45.603Z,1015.63
2018-05-23T10:43:54.263Z,1015.6
2018-05-23T10:45:03.438Z,1015.63
2018-05-23T10:46:12.211Z,1015.68
2018-05-23T10:47:20.743Z,1015.63
2018-05-23T10:48:29.401Z,1015.6
2018-05-23T10:49:38.057Z,1015.57
2018-05-23T10:50:46.975Z,1015.65
2018-05-23T10:51:55.637Z,1015.65
2018-05-23T10:53:04.631Z,1015.66
2018-05-23T10:54:13.285Z,1015.69
2018-05-23T10:55:21.946Z,1015.72
2018-05-23T10:56:30.605Z,1015.69
2018-05-23T10:57:39.252Z,1015.67
2018-05-23T10:58:47.907Z,1015.67
2018-05-23T10:59:56.561Z,1015.61
2018-05-23T11:01:05.220Z,1015.63
2018-05-23T11:02:13.872Z,1015.68
2018-05-23T11:03:22.529Z,1015.68
2018-05-23T11:04:31.181Z,1015.64
2018-05-23T11:05:39.869Z,1015.67
2018-05-23T11:06:48.491Z,1015.7
2018-05-23T11:07:57.144Z,1015.68
2018-05-23T11:09:05.878Z,1015.74
2018-05-23T11:10:14.445Z,1015.7
2018-05-23T11:11:23.108Z,1015.72
2018-05-23T11:12:31.762Z,1015.75
2018-05-23T11:13:40.408Z,1015.74
2018-05-23T11:14:49.127Z,1015.76
2018-05-23T11:15:58.284Z,1015.76
2018-05-23T11:17:06.938Z,1015.77
2018-05-23T11:18:15.596Z,1015.78
2018-05-23T11:19:24.242Z,1015.78
2018-05-23T11:20:32.899Z,1015.76
2018-05-23T11:21:41.552Z,1015.78
2018-05-23T11:22:50.208Z,1015.82
2018-05-23T11:23:59.129Z,1015.83
2018-05-23T11:25:07.781Z,1015.83
2018-05-23T11:26:16.433Z,1015.82
2018-05-23T11:27:25.092Z,1015.84
2018-05-23T11:28:33.751Z,1015.81
2018-05-23T11:29:42.436Z,1015.83
2018-05-23T11:30:51.056Z,1015.84
2018-05-23T11:31:59.711Z,1015.84
2018-05-23T11:33:08.371Z,1015.85
2018-05-23T11:34:17.022Z,1015.86
2018-05-23T11:35:25.676Z,1015.78
2018-05-23T11:36:34.333Z,1015.87
2018-05-23T11:37:43.317Z,1015.86
2018-05-23T11:38:51.968Z,1015.85
2018-05-23T11:40:00.626Z,1015.87
2018-05-23T11:41:09.538Z,1015.88
2018-05-23T11:42:18.201Z,1015.83
2018-05-23T11:43:26.853Z,1015.89
2018-05-23T11:44:35.502Z,1015.89
2018-05-23T11:45:44.152Z,1015.86
2018-05-23T11:46:52.804Z,1015.84
2018-05-23T11:48:01.474Z,1015.86
2018-05-23T11:49:10.120Z,1015.86
2018-05-23T11:50:18.778Z,1015.89
2018-05-23T11:51:27.423Z,1015.86
2018-05-23T11:52:36.088Z,1015.86
2018-05-23T11:53:44.738Z,1015.86
2018-05-23T11:54:53.397Z,1015.88
2018-05-23T11:56:02.038Z,1015.9
2018-05-23T11:57:10.701Z,1015.9
2018-05-23T11:58:19.351Z,1015.9
2018-05-23T11:59:28.007Z,1015.89
2018-05-23T12:00:36.652Z,1015.89
2018-05-23T12:01:45.390Z,1015.9
2018-05-23T12:02:54.256Z,1015.84
2018-05-23T12:04:02.914Z,1015.85
2018-05-23T12:05:11.569Z,1015.85
2018-05-23T12:06:20.217Z,1015.83
2018-05-23T12:07:28.873Z,1015.85
2018-05-23T12:08:37.528Z,1015.82
2018-05-23T12:09:46.191Z,1015.79
2018-05-23T12:10:54.839Z,1015.82
2018-05-23T12:12:03.767Z,1015.83
2018-05-23T12:13:12.416Z,1015.85
2018-05-23T12:14:21.079Z,1015.84
2018-05-23T12:15:29.732Z,1015.84
2018-05-23T12:16:38.389Z,1015.82
2018-05-23T12:17:47.039Z,1015.87
2018-05-23T12:18:55.970Z,1015.85
2018-05-23T12:20:04.884Z,1015.84
2018-05-23T12:21:13.534Z,1015.86
2018-05-23T12:22:22.187Z,1015.91
2018-05-23T12:23:30.845Z,1015.88
2018-05-23T12:24:39.507Z,1015.9
2018-05-23T12:25:48.156Z,1015.87
2018-05-23T12:26:56.817Z,1015.9
2018-05-23T12:28:05.735Z,1015.91
2018-05-23T12:29:14.394Z,1015.91
2018-05-23T12:30:23.040Z,1015.91
2018-05-23T12:31:31.704Z,1015.94
2018-05-23T12:32:40.344Z,1015.95
2018-05-23T12:33:49.010Z,1015.94
2018-05-23T12:34:57.661Z,1016
2018-05-23T12:36:06.320Z,1015.98
2018-05-23T12:37:15.234Z,1015.95
2018-05-23T12:38:23.891Z,1015.93
2018-05-23T12:39:32.551Z,1015.97
2018-05-23T12:40:41.200Z,1016
2018-05-23T12:41:50.212Z,1015.95
2018-05-23T12:42:59.126Z,1015.99
2018-05-23T12:44:07.779Z,1015.96
2018-05-23T12:45:16.432Z,1015.94
2018-05-23T12:46:25.094Z,1015.95
2018-05-23T12:47:33.748Z,1015.93
2018-05-23T12:48:42.407Z,1015.93
2018-05-23T12:49:51.062Z,1015.92
2018-05-23T12:50:59.720Z,1015.93
2018-05-23T12:52:08.370Z,1015.95
2018-05-23T12:53:17.028Z,1015.97
2018-05-23T12:54:25.941Z,1015.97
2018-05-23T12:55:34.605Z,1015.96
2018-05-23T12:56:43.256Z,1015.95
2018-05-23T12:57:52.181Z,1015.94
2018-05-23T12:59:01.100Z,1015.94
2018-05-23T13:00:09.752Z,1015.93
2018-05-23T13:01:18.409Z,1015.94
2018-05-23T13:02:27.068Z,1015.94
2018-05-23T13:03:35.720Z,1015.96
2018-05-23T13:04:44.371Z,1015.93
2018-05-23T13:05:53.028Z,1015.94
2018-05-23T13:07:01.695Z,1015.97
2018-05-23T13:08:10.617Z,1015.95
2018-05-23T13:09:19.261Z,1015.95
2018-05-23T13:10:27.918Z,1015.92
2018-05-23T13:11:36.835Z,1015.92
2018-05-23T13:12:45.590Z,1015.92
2018-05-23T13:13:54.683Z,1015.91
2018-05-23T13:15:03.338Z,1015.9
2018-05-23T13:16:11.993Z,1015.9
2018-05-23T13:17:20.918Z,1015.9
2018-05-23T13:18:29.583Z,1015.91
2018-05-23T13:19:38.222Z,1015.86
2018-05-23T13:20:46.873Z,1015.87
2018-05-23T13:21:55.528Z,1015.87
2018-05-23T13:23:04.191Z,1015.86
2018-05-23T13:24:12.838Z,1015.84
2018-05-23T13:25:21.493Z,1015.83
2018-05-23T13:26:30.151Z,1015.78
2018-05-23T13:27:38.811Z,1015.84
2018-05-23T13:28:47.459Z,1015.84
2018-05-23T13:29:56.117Z,1015.81
2018-05-23T13:31:04.768Z,1015.85
2018-05-23T13:32:13.424Z,1015.8
2018-05-23T13:33:22.076Z,1015.76
2018-05-23T13:34:30.729Z,1015.76
2018-05-23T13:35:39.381Z,1015.76
2018-05-23T13:36:48.319Z,1015.75
2018-05-23T13:37:56.981Z,1015.75
2018-05-23T13:39:05.898Z,1015.77
2018-05-23T13:40:14.553Z,1015.73
2018-05-23T13:41:23.213Z,1015.76
2018-05-23T13:42:31.862Z,1015.75
2018-05-23T13:43:40.516Z,1015.73
2018-05-23T13:44:49.174Z,1015.74
2018-05-23T13:45:57.829Z,1015.73
2018-05-23T13:47:06.480Z,1015.67
2018-05-23T13:48:15.135Z,1015.67
2018-05-23T13:49:24.052Z,1015.68
2018-05-23T13:50:32.712Z,1015.65
2018-05-23T13:51:41.365Z,1015.66
2018-05-23T13:52:50.020Z,1015.63
2018-05-23T13:53:58.938Z,1015.61
2018-05-23T13:55:07.619Z,1015.63